sensor_id;sensor_type;location;lat;lon;timestamp;P1;durP1;ratioP1;P2;durP2;ratioP2
35188;SDS011;21762;54.480;18.556;2023-06-26T00:01:57;11.35;;;7.05;;
35188;SDS011;21762;54.480;18.556;2023-06-26T00:04:26;13.35;;;7.32;;
35188;SDS011;21762;54.480;18.556;2023-06-26T00:06:54;13.40;;;7.18;;
35188;SDS011;21762;54.480;18.556;2023-06-26T00:09:23;10.15;;;6.78;;
35188;SDS011;21762;54.480;18.556;2023-06-26T00:11:53;11.27;;;6.95;;
35188;SDS011;21762;54.480;18.556;2023-06-26T00:14:22;10.65;;;6.68;;
35188;SDS011;21762;54.480;18.556;2023-06-26T00:16:50;10.40;;;6.88;;
35188;SDS011;21762;54.480;18.556;2023-06-26T00:19:19;10.27;;;6.70;;
35188;SDS011;21762;54.480;18.556;2023-06-26T00:21:48;16.75;;;8.10;;
35188;SDS011;21762;54.480;18.556;2023-06-26T00:24:16;13.70;;;7.10;;
35188;SDS011;21762;54.480;18.556;2023-06-26T00:26:46;12.40;;;7.60;;
35188;SDS011;21762;54.480;18.556;2023-06-26T00:29:16;9.93;;;7.63;;
35188;SDS011;21762;54.480;18.556;2023-06-26T00:31:45;13.88;;;7.35;;
35188;SDS011;21762;54.480;18.556;2023-06-26T00:34:14;14.85;;;7.22;;
35188;SDS011;21762;54.480;18.556;2023-06-26T00:39:14;11.00;;;7.70;;
35188;SDS011;21762;54.480;18.556;2023-06-26T00:41:43;11.80;;;7.30;;
35188;SDS011;21762;54.480;18.556;2023-06-26T00:44:12;17.77;;;8.38;;
35188;SDS011;21762;54.480;18.556;2023-06-26T00:46:42;14.68;;;8.23;;
35188;SDS011;21762;54.480;18.556;2023-06-26T00:49:10;12.63;;;8.48;;
35188;SDS011;21762;54.480;18.556;2023-06-26T00:51:39;15.73;;;8.20;;
35188;SDS011;21762;54.480;18.556;2023-06-26T00:54:08;10.23;;;7.68;;
35188;SDS011;21762;54.480;18.556;2023-06-26T00:56:36;14.32;;;8.55;;
35188;SDS011;21762;54.480;18.556;2023-06-26T00:59:05;14.23;;;8.07;;
35188;SDS011;21762;54.480;18.556;2023-06-26T01:01:34;13.77;;;9.20;;
35188;SDS011;21762;54.480;18.556;2023-06-26T01:04:04;12.75;;;8.55;;
35188;SDS011;21762;54.480;18.556;2023-06-26T01:06:33;14.75;;;8.38;;
35188;SDS011;21762;54.480;18.556;2023-06-26T01:09:02;14.68;;;7.85;;
35188;SDS011;21762;54.480;18.556;2023-06-26T01:11:31;18.50;;;9.30;;
35188;SDS011;21762;54.480;18.556;2023-06-26T01:14:00;15.10;;;8.75;;
35188;SDS011;21762;54.480;18.556;2023-06-26T01:16:29;19.88;;;8.93;;
35188;SDS011;21762;54.480;18.556;2023-06-26T01:18:58;14.50;;;8.50;;
35188;SDS011;21762;54.480;18.556;2023-06-26T01:21:28;14.15;;;9.18;;
35188;SDS011;21762;54.480;18.556;2023-06-26T01:26:33;15.65;;;9.57;;
35188;SDS011;21762;54.480;18.556;2023-06-26T01:29:03;17.40;;;8.85;;
35188;SDS011;21762;54.480;18.556;2023-06-26T01:31:33;14.32;;;9.20;;
35188;SDS011;21762;54.480;18.556;2023-06-26T01:34:02;15.00;;;9.60;;
35188;SDS011;21762;54.480;18.556;2023-06-26T01:36:31;14.32;;;8.77;;
35188;SDS011;21762;54.480;18.556;2023-06-26T01:38:59;16.05;;;8.85;;
35188;SDS011;21762;54.480;18.556;2023-06-26T01:41:28;19.45;;;9.57;;
35188;SDS011;21762;54.480;18.556;2023-06-26T01:44:01;15.68;;;9.07;;
35188;SDS011;21762;54.480;18.556;2023-06-26T01:46:36;16.38;;;8.43;;
35188;SDS011;21762;54.480;18.556;2023-06-26T01:49:09;14.25;;;8.80;;
35188;SDS011;21762;54.480;18.556;2023-06-26T01:51:42;13.90;;;9.13;;
35188;SDS011;21762;54.480;18.556;2023-06-26T01:54:16;16.35;;;8.55;;
35188;SDS011;21762;54.480;18.556;2023-06-26T01:56:47;14.35;;;9.27;;
35188;SDS011;21762;54.480;18.556;2023-06-26T01:59:19;17.52;;;10.80;;
35188;SDS011;21762;54.480;18.556;2023-06-26T02:01:49;18.60;;;9.57;;
35188;SDS011;21762;54.480;18.556;2023-06-26T02:04:17;19.65;;;9.10;;
35188;SDS011;21762;54.480;18.556;2023-06-26T02:06:46;15.80;;;9.15;;
35188;SDS011;21762;54.480;18.556;2023-06-26T02:09:15;14.95;;;9.38;;
35188;SDS011;21762;54.480;18.556;2023-06-26T02:11:43;14.98;;;9.15;;
35188;SDS011;21762;54.480;18.556;2023-06-26T02:14:12;16.67;;;8.80;;
35188;SDS011;21762;54.480;18.556;2023-06-26T02:16:42;16.05;;;9.43;;
35188;SDS011;21762;54.480;18.556;2023-06-26T02:19:11;16.00;;;9.07;;
35188;SDS011;21762;54.480;18.556;2023-06-26T02:21:39;18.30;;;9.07;;
35188;SDS011;21762;54.480;18.556;2023-06-26T02:24:08;16.90;;;8.82;;
35188;SDS011;21762;54.480;18.556;2023-06-26T02:26:36;14.43;;;8.82;;
35188;SDS011;21762;54.480;18.556;2023-06-26T02:29:05;15.77;;;8.50;;
35188;SDS011;21762;54.480;18.556;2023-06-26T02:31:34;14.77;;;8.85;;
35188;SDS011;21762;54.480;18.556;2023-06-26T02:34:04;16.00;;;9.38;;
35188;SDS011;21762;54.480;18.556;2023-06-26T02:36:33;16.10;;;7.97;;
35188;SDS011;21762;54.480;18.556;2023-06-26T02:39:04;14.00;;;8.82;;
35188;SDS011;21762;54.480;18.556;2023-06-26T02:41:33;14.35;;;8.65;;
35188;SDS011;21762;54.480;18.556;2023-06-26T02:44:01;13.98;;;7.97;;
35188;SDS011;21762;54.480;18.556;2023-06-26T02:46:30;13.30;;;8.23;;
35188;SDS011;21762;54.480;18.556;2023-06-26T02:49:00;12.48;;;7.93;;
35188;SDS011;21762;54.480;18.556;2023-06-26T02:51:31;13.98;;;8.15;;
35188;SDS011;21762;54.480;18.556;2023-06-26T02:54:03;11.98;;;7.97;;
35188;SDS011;21762;54.480;18.556;2023-06-26T02:56:31;12.57;;;7.72;;
35188;SDS011;21762;54.480;18.556;2023-06-26T02:59:01;12.68;;;7.95;;
35188;SDS011;21762;54.480;18.556;2023-06-26T03:01:30;17.42;;;8.63;;
35188;SDS011;21762;54.480;18.556;2023-06-26T03:03:58;13.50;;;7.97;;
35188;SDS011;21762;54.480;18.556;2023-06-26T03:06:27;13.75;;;9.07;;
35188;SDS011;21762;54.480;18.556;2023-06-26T03:08:57;16.05;;;8.55;;
35188;SDS011;21762;54.480;18.556;2023-06-26T03:11:26;14.35;;;8.05;;
35188;SDS011;21762;54.480;18.556;2023-06-26T03:13:55;14.85;;;8.40;;
35188;SDS011;21762;54.480;18.556;2023-06-26T03:16:24;14.82;;;7.95;;
35188;SDS011;21762;54.480;18.556;2023-06-26T03:18:52;13.07;;;8.18;;
35188;SDS011;21762;54.480;18.556;2023-06-26T03:21:21;11.75;;;7.40;;
35188;SDS011;21762;54.480;18.556;2023-06-26T03:23:50;15.35;;;8.32;;
35188;SDS011;21762;54.480;18.556;2023-06-26T03:26:20;13.90;;;7.25;;
35188;SDS011;21762;54.480;18.556;2023-06-26T03:28:57;22.65;;;8.98;;
35188;SDS011;21762;54.480;18.556;2023-06-26T03:31:26;14.48;;;7.95;;
35188;SDS011;21762;54.480;18.556;2023-06-26T03:33:55;11.90;;;8.10;;
35188;SDS011;21762;54.480;18.556;2023-06-26T03:36:24;12.25;;;7.97;;
35188;SDS011;21762;54.480;18.556;2023-06-26T03:38:53;13.30;;;7.90;;
35188;SDS011;21762;54.480;18.556;2023-06-26T03:41:26;13.57;;;7.80;;
35188;SDS011;21762;54.480;18.556;2023-06-26T03:43:56;13.30;;;7.05;;
35188;SDS011;21762;54.480;18.556;2023-06-26T03:46:33;9.93;;;6.78;;
35188;SDS011;21762;54.480;18.556;2023-06-26T03:49:02;13.07;;;7.13;;
35188;SDS011;21762;54.480;18.556;2023-06-26T03:51:31;10.38;;;6.57;;
35188;SDS011;21762;54.480;18.556;2023-06-26T03:53:59;11.57;;;7.07;;
35188;SDS011;21762;54.480;18.556;2023-06-26T03:56:30;12.45;;;6.88;;
35188;SDS011;21762;54.480;18.556;2023-06-26T03:58:58;9.68;;;6.65;;
35188;SDS011;21762;54.480;18.556;2023-06-26T04:01:27;10.73;;;5.90;;
35188;SDS011;21762;54.480;18.556;2023-06-26T04:03:56;11.57;;;6.55;;
35188;SDS011;21762;54.480;18.556;2023-06-26T04:06:24;8.57;;;6.60;;
35188;SDS011;21762;54.480;18.556;2023-06-26T04:08:53;10.85;;;5.88;;
35188;SDS011;21762;54.480;18.556;2023-06-26T04:11:22;7.75;;;5.95;;
35188;SDS011;21762;54.480;18.556;2023-06-26T04:13:52;8.52;;;5.45;;
35188;SDS011;21762;54.480;18.556;2023-06-26T04:16:21;8.32;;;5.55;;
35188;SDS011;21762;54.480;18.556;2023-06-26T04:18:52;8.43;;;5.38;;
35188;SDS011;21762;54.480;18.556;2023-06-26T04:21:23;7.68;;;5.45;;
35188;SDS011;21762;54.480;18.556;2023-06-26T04:23:52;6.55;;;4.50;;
35188;SDS011;21762;54.480;18.556;2023-06-26T04:26:21;8.18;;;4.75;;
35188;SDS011;21762;54.480;18.556;2023-06-26T04:28:49;8.18;;;4.45;;
35188;SDS011;21762;54.480;18.556;2023-06-26T04:31:19;10.50;;;4.80;;
35188;SDS011;21762;54.480;18.556;2023-06-26T04:33:48;6.13;;;4.57;;
35188;SDS011;21762;54.480;18.556;2023-06-26T04:36:18;8.90;;;4.28;;
35188;SDS011;21762;54.480;18.556;2023-06-26T04:38:47;7.63;;;4.43;;
35188;SDS011;21762;54.480;18.556;2023-06-26T04:41:16;7.55;;;3.97;;
35188;SDS011;21762;54.480;18.556;2023-06-26T04:43:45;7.50;;;4.15;;
35188;SDS011;21762;54.480;18.556;2023-06-26T04:46:14;5.65;;;4.22;;
35188;SDS011;21762;54.480;18.556;2023-06-26T04:48:44;6.47;;;4.15;;
35188;SDS011;21762;54.480;18.556;2023-06-26T04:51:12;7.07;;;4.32;;
35188;SDS011;21762;54.480;18.556;2023-06-26T04:53:42;4.38;;;3.90;;
35188;SDS011;21762;54.480;18.556;2023-06-26T04:56:11;7.35;;;4.00;;
35188;SDS011;21762;54.480;18.556;2023-06-26T04:58:40;6.63;;;3.97;;
35188;SDS011;21762;54.480;18.556;2023-06-26T05:01:08;6.38;;;3.95;;
35188;SDS011;21762;54.480;18.556;2023-06-26T05:03:37;5.82;;;3.90;;
35188;SDS011;21762;54.480;18.556;2023-06-26T05:06:07;5.88;;;3.63;;
35188;SDS011;21762;54.480;18.556;2023-06-26T05:08:36;5.50;;;3.17;;
35188;SDS011;21762;54.480;18.556;2023-06-26T05:11:04;3.75;;;3.00;;
35188;SDS011;21762;54.480;18.556;2023-06-26T05:13:33;7.57;;;3.08;;
35188;SDS011;21762;54.480;18.556;2023-06-26T05:16:02;6.15;;;3.30;;
35188;SDS011;21762;54.480;18.556;2023-06-26T05:18:31;4.90;;;2.92;;
35188;SDS011;21762;54.480;18.556;2023-06-26T05:20:59;5.35;;;3.00;;
35188;SDS011;21762;54.480;18.556;2023-06-26T05:23:30;4.35;;;2.70;;
35188;SDS011;21762;54.480;18.556;2023-06-26T05:26:00;5.05;;;3.30;;
35188;SDS011;21762;54.480;18.556;2023-06-26T05:28:31;4.38;;;3.30;;
35188;SDS011;21762;54.480;18.556;2023-06-26T05:31:00;4.30;;;3.42;;
35188;SDS011;21762;54.480;18.556;2023-06-26T05:33:31;2.80;;;2.42;;
35188;SDS011;21762;54.480;18.556;2023-06-26T05:36:04;3.58;;;2.45;;
35188;SDS011;21762;54.480;18.556;2023-06-26T05:38:35;3.85;;;2.75;;
35188;SDS011;21762;54.480;18.556;2023-06-26T05:41:04;5.07;;;3.05;;
35188;SDS011;21762;54.480;18.556;2023-06-26T05:43:33;9.52;;;2.97;;
35188;SDS011;21762;54.480;18.556;2023-06-26T05:46:02;7.97;;;3.38;;
35188;SDS011;21762;54.480;18.556;2023-06-26T05:48:31;6.10;;;3.33;;
35188;SDS011;21762;54.480;18.556;2023-06-26T05:51:00;5.03;;;3.10;;
35188;SDS011;21762;54.480;18.556;2023-06-26T05:53:30;6.18;;;3.20;;
35188;SDS011;21762;54.480;18.556;2023-06-26T05:56:01;7.35;;;3.40;;
35188;SDS011;21762;54.480;18.556;2023-06-26T05:58:30;7.20;;;3.30;;
35188;SDS011;21762;54.480;18.556;2023-06-26T06:00:59;6.82;;;3.88;;
35188;SDS011;21762;54.480;18.556;2023-06-26T06:03:27;7.00;;;3.50;;
35188;SDS011;21762;54.480;18.556;2023-06-26T06:05:56;4.78;;;3.60;;
35188;SDS011;21762;54.480;18.556;2023-06-26T06:08:25;5.07;;;3.70;;
35188;SDS011;21762;54.480;18.556;2023-06-26T06:10:54;4.43;;;3.03;;
35188;SDS011;21762;54.480;18.556;2023-06-26T06:13:24;4.43;;;3.22;;
35188;SDS011;21762;54.480;18.556;2023-06-26T06:15:53;4.60;;;3.88;;
35188;SDS011;21762;54.480;18.556;2023-06-26T06:18:22;8.23;;;4.50;;
35188;SDS011;21762;54.480;18.556;2023-06-26T06:20:51;5.07;;;4.32;;
35188;SDS011;21762;54.480;18.556;2023-06-26T06:23:19;7.18;;;3.63;;
35188;SDS011;21762;54.480;18.556;2023-06-26T06:25:49;5.43;;;4.18;;
35188;SDS011;21762;54.480;18.556;2023-06-26T06:28:17;7.20;;;4.85;;
35188;SDS011;21762;54.480;18.556;2023-06-26T06:30:48;9.05;;;4.72;;
35188;SDS011;21762;54.480;18.556;2023-06-26T06:33:17;7.68;;;4.72;;
35188;SDS011;21762;54.480;18.556;2023-06-26T06:35:46;6.15;;;4.53;;
35188;SDS011;21762;54.480;18.556;2023-06-26T06:38:14;6.65;;;4.07;;
35188;SDS011;21762;54.480;18.556;2023-06-26T06:40:43;6.30;;;4.40;;
35188;SDS011;21762;54.480;18.556;2023-06-26T06:43:12;5.07;;;4.05;;
35188;SDS011;21762;54.480;18.556;2023-06-26T06:45:40;9.20;;;4.55;;
35188;SDS011;21762;54.480;18.556;2023-06-26T06:48:11;7.95;;;4.43;;
35188;SDS011;21762;54.480;18.556;2023-06-26T06:50:40;7.25;;;4.55;;
35188;SDS011;21762;54.480;18.556;2023-06-26T06:53:09;11.77;;;4.35;;
35188;SDS011;21762;54.480;18.556;2023-06-26T06:55:37;5.00;;;4.07;;
35188;SDS011;21762;54.480;18.556;2023-06-26T06:58:06;11.07;;;4.57;;
35188;SDS011;21762;54.480;18.556;2023-06-26T07:00:35;7.30;;;4.43;;
35188;SDS011;21762;54.480;18.556;2023-06-26T07:03:07;11.38;;;4.78;;
35188;SDS011;21762;54.480;18.556;2023-06-26T07:05:41;8.73;;;4.22;;
35188;SDS011;21762;54.480;18.556;2023-06-26T07:08:10;7.00;;;4.43;;
35188;SDS011;21762;54.480;18.556;2023-06-26T07:10:40;7.70;;;5.05;;
35188;SDS011;21762;54.480;18.556;2023-06-26T07:13:09;16.00;;;4.88;;
35188;SDS011;21762;54.480;18.556;2023-06-26T07:15:38;8.55;;;4.78;;
35188;SDS011;21762;54.480;18.556;2023-06-26T07:18:07;7.82;;;5.43;;
35188;SDS011;21762;54.480;18.556;2023-06-26T07:20:36;6.05;;;4.38;;
35188;SDS011;21762;54.480;18.556;2023-06-26T07:23:06;5.93;;;4.97;;
35188;SDS011;21762;54.480;18.556;2023-06-26T07:25:35;7.10;;;5.55;;
35188;SDS011;21762;54.480;18.556;2023-06-26T07:28:09;10.20;;;5.40;;
35188;SDS011;21762;54.480;18.556;2023-06-26T07:30:39;9.93;;;5.85;;
35188;SDS011;21762;54.480;18.556;2023-06-26T07:33:07;8.80;;;5.35;;
35188;SDS011;21762;54.480;18.556;2023-06-26T07:35:36;7.03;;;4.85;;
35188;SDS011;21762;54.480;18.556;2023-06-26T07:38:07;7.95;;;4.85;;
35188;SDS011;21762;54.480;18.556;2023-06-26T07:40:36;9.60;;;5.55;;
35188;SDS011;21762;54.480;18.556;2023-06-26T07:43:04;10.32;;;5.30;;
35188;SDS011;21762;54.480;18.556;2023-06-26T07:45:33;7.97;;;4.70;;
35188;SDS011;21762;54.480;18.556;2023-06-26T07:48:02;12.48;;;6.38;;
35188;SDS011;21762;54.480;18.556;2023-06-26T07:50:31;8.30;;;4.90;;
35188;SDS011;21762;54.480;18.556;2023-06-26T07:52:59;8.32;;;6.18;;
35188;SDS011;21762;54.480;18.556;2023-06-26T07:55:30;6.55;;;4.40;;
35188;SDS011;21762;54.480;18.556;2023-06-26T07:58:00;8.53;;;5.23;;
35188;SDS011;21762;54.480;18.556;2023-06-26T08:00:29;8.23;;;5.75;;
35188;SDS011;21762;54.480;18.556;2023-06-26T08:02:57;6.68;;;5.30;;
35188;SDS011;21762;54.480;18.556;2023-06-26T08:05:26;7.28;;;5.28;;
35188;SDS011;21762;54.480;18.556;2023-06-26T08:07:55;10.50;;;4.55;;
35188;SDS011;21762;54.480;18.556;2023-06-26T08:10:24;10.65;;;4.30;;
35188;SDS011;21762;54.480;18.556;2023-06-26T08:12:54;5.43;;;4.40;;
35188;SDS011;21762;54.480;18.556;2023-06-26T08:15:23;6.57;;;4.40;;
35188;SDS011;21762;54.480;18.556;2023-06-26T08:17:51;7.57;;;4.72;;
35188;SDS011;21762;54.480;18.556;2023-06-26T08:20:20;8.95;;;4.65;;
35188;SDS011;21762;54.480;18.556;2023-06-26T08:22:49;7.55;;;4.35;;
35188;SDS011;21762;54.480;18.556;2023-06-26T08:25:19;7.32;;;4.15;;
35188;SDS011;21762;54.480;18.556;2023-06-26T08:27:48;6.57;;;4.70;;
35188;SDS011;21762;54.480;18.556;2023-06-26T08:30:21;6.32;;;4.55;;
35188;SDS011;21762;54.480;18.556;2023-06-26T08:32:55;5.53;;;4.07;;
35188;SDS011;21762;54.480;18.556;2023-06-26T08:35:23;7.55;;;4.70;;
35188;SDS011;21762;54.480;18.556;2023-06-26T08:37:52;8.25;;;3.78;;
35188;SDS011;21762;54.480;18.556;2023-06-26T08:40:22;5.65;;;4.30;;
35188;SDS011;21762;54.480;18.556;2023-06-26T08:42:51;9.55;;;5.25;;
35188;SDS011;21762;54.480;18.556;2023-06-26T08:45:22;8.88;;;5.03;;
35188;SDS011;21762;54.480;18.556;2023-06-26T08:47:51;9.35;;;5.65;;
35188;SDS011;21762;54.480;18.556;2023-06-26T08:50:22;6.65;;;4.57;;
35188;SDS011;21762;54.480;18.556;2023-06-26T08:52:53;11.80;;;5.85;;
35188;SDS011;21762;54.480;18.556;2023-06-26T08:55:25;12.55;;;7.10;;
35188;SDS011;21762;54.480;18.556;2023-06-26T08:57:55;8.82;;;7.20;;
35188;SDS011;21762;54.480;18.556;2023-06-26T09:00:26;7.70;;;6.35;;
35188;SDS011;21762;54.480;18.556;2023-06-26T09:02:54;11.70;;;8.60;;
35188;SDS011;21762;54.480;18.556;2023-06-26T09:05:24;12.07;;;7.07;;
35188;SDS011;21762;54.480;18.556;2023-06-26T09:07:55;11.82;;;7.68;;
35188;SDS011;21762;54.480;18.556;2023-06-26T09:10:24;9.18;;;7.05;;
35188;SDS011;21762;54.480;18.556;2023-06-26T09:12:55;8.13;;;6.65;;
35188;SDS011;21762;54.480;18.556;2023-06-26T09:15:25;13.07;;;6.93;;
35188;SDS011;21762;54.480;18.556;2023-06-26T09:17:55;9.07;;;6.53;;
35188;SDS011;21762;54.480;18.556;2023-06-26T09:20:27;9.80;;;6.90;;
35188;SDS011;21762;54.480;18.556;2023-06-26T09:22:56;10.20;;;8.43;;
35188;SDS011;21762;54.480;18.556;2023-06-26T09:25:25;8.90;;;6.28;;
35188;SDS011;21762;54.480;18.556;2023-06-26T09:27:54;11.73;;;6.40;;
35188;SDS011;21762;54.480;18.556;2023-06-26T09:30:23;6.68;;;5.60;;
35188;SDS011;21762;54.480;18.556;2023-06-26T09:32:54;9.40;;;5.88;;
35188;SDS011;21762;54.480;18.556;2023-06-26T09:35:23;8.15;;;5.90;;
35188;SDS011;21762;54.480;18.556;2023-06-26T09:37:52;8.30;;;6.85;;
35188;SDS011;21762;54.480;18.556;2023-06-26T09:40:20;8.50;;;5.97;;
35188;SDS011;21762;54.480;18.556;2023-06-26T09:42:50;7.75;;;5.80;;
35188;SDS011;21762;54.480;18.556;2023-06-26T09:45:19;6.95;;;4.72;;
35188;SDS011;21762;54.480;18.556;2023-06-26T09:47:48;5.63;;;4.93;;
35188;SDS011;21762;54.480;18.556;2023-06-26T09:50:25;6.60;;;4.88;;
35188;SDS011;21762;54.480;18.556;2023-06-26T09:52:54;7.63;;;5.30;;
35188;SDS011;21762;54.480;18.556;2023-06-26T09:55:25;10.43;;;5.68;;
35188;SDS011;21762;54.480;18.556;2023-06-26T09:57:55;11.85;;;5.82;;
35188;SDS011;21762;54.480;18.556;2023-06-26T10:00:25;9.70;;;6.40;;
35188;SDS011;21762;54.480;18.556;2023-06-26T10:02:54;9.38;;;6.65;;
35188;SDS011;21762;54.480;18.556;2023-06-26T10:05:25;5.38;;;4.70;;
35188;SDS011;21762;54.480;18.556;2023-06-26T10:07:54;7.50;;;5.65;;
35188;SDS011;21762;54.480;18.556;2023-06-26T10:10:23;8.57;;;5.25;;
35188;SDS011;21762;54.480;18.556;2023-06-26T10:12:54;11.95;;;6.97;;
35188;SDS011;21762;54.480;18.556;2023-06-26T10:15:27;19.73;;;6.30;;
35188;SDS011;21762;54.480;18.556;2023-06-26T10:17:57;6.47;;;5.50;;
35188;SDS011;21762;54.480;18.556;2023-06-26T10:20:27;13.80;;;6.13;;
35188;SDS011;21762;54.480;18.556;2023-06-26T10:22:57;8.88;;;5.40;;
35188;SDS011;21762;54.480;18.556;2023-06-26T10:25:26;11.63;;;6.50;;
35188;SDS011;21762;54.480;18.556;2023-06-26T10:27:57;7.75;;;5.93;;
35188;SDS011;21762;54.480;18.556;2023-06-26T10:30:28;9.68;;;6.28;;
35188;SDS011;21762;54.480;18.556;2023-06-26T10:33:00;9.10;;;5.85;;
35188;SDS011;21762;54.480;18.556;2023-06-26T10:35:31;8.93;;;6.18;;
35188;SDS011;21762;54.480;18.556;2023-06-26T10:38:01;10.52;;;6.00;;
35188;SDS011;21762;54.480;18.556;2023-06-26T10:40:39;8.30;;;5.63;;
35188;SDS011;21762;54.480;18.556;2023-06-26T10:43:09;7.82;;;5.22;;
35188;SDS011;21762;54.480;18.556;2023-06-26T10:45:43;7.15;;;5.57;;
35188;SDS011;21762;54.480;18.556;2023-06-26T10:48:14;6.47;;;4.43;;
35188;SDS011;21762;54.480;18.556;2023-06-26T10:50:47;8.40;;;5.10;;
35188;SDS011;21762;54.480;18.556;2023-06-26T10:53:21;7.82;;;5.10;;
35188;SDS011;21762;54.480;18.556;2023-06-26T10:55:56;11.23;;;6.45;;
35188;SDS011;21762;54.480;18.556;2023-06-26T10:58:28;9.00;;;7.13;;
35188;SDS011;21762;54.480;18.556;2023-06-26T11:04:00;8.95;;;5.30;;
35188;SDS011;21762;54.480;18.556;2023-06-26T11:06:34;11.20;;;5.65;;
35188;SDS011;21762;54.480;18.556;2023-06-26T11:09:09;18.30;;;5.95;;
35188;SDS011;21762;54.480;18.556;2023-06-26T11:11:58;9.75;;;5.80;;
35188;SDS011;21762;54.480;18.556;2023-06-26T11:17:03;7.28;;;5.65;;
35188;SDS011;21762;54.480;18.556;2023-06-26T11:19:33;14.80;;;6.30;;
35188;SDS011;21762;54.480;18.556;2023-06-26T11:22:04;11.63;;;5.90;;
35188;SDS011;21762;54.480;18.556;2023-06-26T11:27:02;7.20;;;4.95;;
35188;SDS011;21762;54.480;18.556;2023-06-26T11:29:33;5.30;;;4.25;;
35188;SDS011;21762;54.480;18.556;2023-06-26T11:32:03;7.05;;;5.13;;
35188;SDS011;21762;54.480;18.556;2023-06-26T11:34:34;6.20;;;4.10;;
35188;SDS011;21762;54.480;18.556;2023-06-26T11:37:06;6.40;;;4.28;;
35188;SDS011;21762;54.480;18.556;2023-06-26T11:39:36;5.82;;;4.30;;
35188;SDS011;21762;54.480;18.556;2023-06-26T11:42:06;8.98;;;4.30;;
35188;SDS011;21762;54.480;18.556;2023-06-26T11:44:39;8.57;;;3.65;;
35188;SDS011;21762;54.480;18.556;2023-06-26T11:47:12;4.85;;;3.55;;
35188;SDS011;21762;54.480;18.556;2023-06-26T11:49:42;7.50;;;4.68;;
35188;SDS011;21762;54.480;18.556;2023-06-26T11:52:14;6.38;;;3.72;;
35188;SDS011;21762;54.480;18.556;2023-06-26T11:54:44;5.50;;;3.90;;
35188;SDS011;21762;54.480;18.556;2023-06-26T11:57:14;6.25;;;4.32;;
35188;SDS011;21762;54.480;18.556;2023-06-26T11:59:44;5.65;;;3.83;;
35188;SDS011;21762;54.480;18.556;2023-06-26T12:02:13;6.07;;;3.53;;
35188;SDS011;21762;54.480;18.556;2023-06-26T12:04:43;7.85;;;3.22;;
35188;SDS011;21762;54.480;18.556;2023-06-26T12:07:14;4.80;;;3.65;;
35188;SDS011;21762;54.480;18.556;2023-06-26T12:09:45;7.20;;;3.65;;
35188;SDS011;21762;54.480;18.556;2023-06-26T12:12:16;8.33;;;3.63;;
35188;SDS011;21762;54.480;18.556;2023-06-26T12:14:45;26.00;;;5.43;;
35188;SDS011;21762;54.480;18.556;2023-06-26T12:17:14;135.52;;;12.82;;
35188;SDS011;21762;54.480;18.556;2023-06-26T12:19:44;18.40;;;5.20;;
35188;SDS011;21762;54.480;18.556;2023-06-26T12:22:17;6.22;;;3.60;;
35188;SDS011;21762;54.480;18.556;2023-06-26T12:24:46;10.88;;;4.22;;
35188;SDS011;21762;54.480;18.556;2023-06-26T12:27:17;7.32;;;4.38;;
35188;SDS011;21762;54.480;18.556;2023-06-26T12:29:49;19.95;;;5.53;;
35188;SDS011;21762;54.480;18.556;2023-06-26T12:32:21;186.00;;;12.70;;
35188;SDS011;21762;54.480;18.556;2023-06-26T12:34:52;6.35;;;4.60;;
35188;SDS011;21762;54.480;18.556;2023-06-26T12:37:22;6.90;;;3.90;;
35188;SDS011;21762;54.480;18.556;2023-06-26T12:39:52;5.22;;;4.10;;
35188;SDS011;21762;54.480;18.556;2023-06-26T12:42:22;6.50;;;4.50;;
35188;SDS011;21762;54.480;18.556;2023-06-26T12:44:51;8.38;;;4.88;;
35188;SDS011;21762;54.480;18.556;2023-06-26T12:47:23;7.70;;;4.72;;
35188;SDS011;21762;54.480;18.556;2023-06-26T12:49:54;5.13;;;3.90;;
35188;SDS011;21762;54.480;18.556;2023-06-26T12:52:26;7.65;;;4.18;;
35188;SDS011;21762;54.480;18.556;2023-06-26T12:54:55;6.90;;;4.22;;
35188;SDS011;21762;54.480;18.556;2023-06-26T12:57:24;7.53;;;5.22;;
35188;SDS011;21762;54.480;18.556;2023-06-26T12:59:53;5.47;;;4.28;;
35188;SDS011;21762;54.480;18.556;2023-06-26T13:02:22;8.40;;;4.90;;
35188;SDS011;21762;54.480;18.556;2023-06-26T13:04:51;9.45;;;4.90;;
35188;SDS011;21762;54.480;18.556;2023-06-26T13:07:20;9.65;;;4.88;;
35188;SDS011;21762;54.480;18.556;2023-06-26T13:09:53;6.13;;;4.20;;
35188;SDS011;21762;54.480;18.556;2023-06-26T13:12:23;4.40;;;4.00;;
35188;SDS011;21762;54.480;18.556;2023-06-26T13:14:52;8.10;;;4.15;;
35188;SDS011;21762;54.480;18.556;2023-06-26T13:17:20;8.40;;;4.00;;
35188;SDS011;21762;54.480;18.556;2023-06-26T13:19:49;5.03;;;3.70;;
35188;SDS011;21762;54.480;18.556;2023-06-26T13:22:19;9.43;;;4.47;;
35188;SDS011;21762;54.480;18.556;2023-06-26T13:24:48;6.18;;;4.07;;
35188;SDS011;21762;54.480;18.556;2023-06-26T13:27:19;3.95;;;3.22;;
35188;SDS011;21762;54.480;18.556;2023-06-26T13:29:48;5.15;;;3.40;;
35188;SDS011;21762;54.480;18.556;2023-06-26T13:32:17;6.43;;;3.78;;
35188;SDS011;21762;54.480;18.556;2023-06-26T13:34:46;4.57;;;3.78;;
35188;SDS011;21762;54.480;18.556;2023-06-26T13:37:16;4.60;;;3.25;;
35188;SDS011;21762;54.480;18.556;2023-06-26T13:39:45;5.80;;;3.80;;
35188;SDS011;21762;54.480;18.556;2023-06-26T13:44:47;3.67;;;3.13;;
35188;SDS011;21762;54.480;18.556;2023-06-26T13:47:22;4.28;;;2.92;;
35188;SDS011;21762;54.480;18.556;2023-06-26T13:49:51;6.15;;;3.28;;
35188;SDS011;21762;54.480;18.556;2023-06-26T13:52:20;5.82;;;3.17;;
35188;SDS011;21762;54.480;18.556;2023-06-26T13:54:51;3.50;;;2.88;;
35188;SDS011;21762;54.480;18.556;2023-06-26T13:57:20;6.35;;;3.30;;
35188;SDS011;21762;54.480;18.556;2023-06-26T13:59:51;4.13;;;3.10;;
35188;SDS011;21762;54.480;18.556;2023-06-26T14:02:20;5.03;;;3.15;;
35188;SDS011;21762;54.480;18.556;2023-06-26T14:04:50;8.77;;;3.78;;
35188;SDS011;21762;54.480;18.556;2023-06-26T14:07:19;5.00;;;3.50;;
35188;SDS011;21762;54.480;18.556;2023-06-26T14:09:48;6.70;;;3.60;;
35188;SDS011;21762;54.480;18.556;2023-06-26T14:12:18;3.90;;;3.13;;
35188;SDS011;21762;54.480;18.556;2023-06-26T14:14:47;7.80;;;3.35;;
35188;SDS011;21762;54.480;18.556;2023-06-26T14:17:18;3.83;;;3.08;;
35188;SDS011;21762;54.480;18.556;2023-06-26T14:19:47;4.38;;;3.10;;
35188;SDS011;21762;54.480;18.556;2023-06-26T14:22:16;3.95;;;3.28;;
35188;SDS011;21762;54.480;18.556;2023-06-26T14:24:45;4.25;;;3.40;;
35188;SDS011;21762;54.480;18.556;2023-06-26T14:27:14;4.40;;;3.38;;
35188;SDS011;21762;54.480;18.556;2023-06-26T14:29:43;7.07;;;3.17;;
35188;SDS011;21762;54.480;18.556;2023-06-26T14:32:12;5.93;;;3.50;;
35188;SDS011;21762;54.480;18.556;2023-06-26T14:34:43;6.57;;;3.47;;
35188;SDS011;21762;54.480;18.556;2023-06-26T14:37:11;3.17;;;2.83;;
35188;SDS011;21762;54.480;18.556;2023-06-26T14:39:40;3.47;;;3.13;;
35188;SDS011;21762;54.480;18.556;2023-06-26T14:42:09;4.63;;;3.47;;
35188;SDS011;21762;54.480;18.556;2023-06-26T14:44:39;11.13;;;3.33;;
35188;SDS011;21762;54.480;18.556;2023-06-26T14:47:08;3.80;;;2.53;;
35188;SDS011;21762;54.480;18.556;2023-06-26T14:49:37;3.58;;;3.00;;
35188;SDS011;21762;54.480;18.556;2023-06-26T14:52:07;6.00;;;2.83;;
35188;SDS011;21762;54.480;18.556;2023-06-26T14:54:36;4.10;;;2.87;;
35188;SDS011;21762;54.480;18.556;2023-06-26T14:57:06;7.30;;;3.72;;
35188;SDS011;21762;54.480;18.556;2023-06-26T14:59:36;4.68;;;3.45;;